createdAt,value
2019-02-02T00:02:27.439Z,57.90
2019-02-02T00:04:55.242Z,61.30
2019-02-02T00:07:23.190Z,65.73
2019-02-02T00:09:50.994Z,62.43
2019-02-02T00:12:18.919Z,60.97
2019-02-02T00:14:46.891Z,62.50
2019-02-02T00:17:14.675Z,58.60
2019-02-02T00:19:42.488Z,62.63
2019-02-02T00:22:10.376Z,62.50
2019-02-02T00:24:38.277Z,70.23
2019-02-02T00:27:06.210Z,67.97
2019-02-02T00:29:34.070Z,71.50
2019-02-02T00:32:01.885Z,60.70
2019-02-02T00:34:29.704Z,63.77
2019-02-02T00:36:59.259Z,65.37
2019-02-02T00:39:27.262Z,66.10
2019-02-02T00:41:55.094Z,66.20
2019-02-02T00:44:23.022Z,62.77
2019-02-02T00:46:50.863Z,61.93
2019-02-02T00:49:18.718Z,59.17
2019-02-02T00:51:46.905Z,61.70
2019-02-02T00:54:14.741Z,52.17
2019-02-02T00:56:42.543Z,63.67
2019-02-02T00:59:10.523Z,64.33
2019-02-02T01:01:38.409Z,60.53
2019-02-02T01:04:06.235Z,57.57
2019-02-02T01:06:34.144Z,59.60
2019-02-02T01:09:02.016Z,57.93
2019-02-02T01:11:29.831Z,61.40
2019-02-02T01:13:57.665Z,60.13
2019-02-02T01:16:25.549Z,57.30
2019-02-02T01:18:53.531Z,54.27
2019-02-02T01:21:21.467Z,56.33
2019-02-02T01:23:49.323Z,57.30
2019-02-02T01:26:17.367Z,55.67
2019-02-02T01:28:45.200Z,57.10
2019-02-02T01:31:13.048Z,56.27
2019-02-02T01:33:41.023Z,51.80
2019-02-02T01:36:08.848Z,52.53
2019-02-02T01:38:36.674Z,51.53
2019-02-02T01:41:04.565Z,49.93
2019-02-02T01:43:32.380Z,49.07
2019-02-02T01:46:00.306Z,52.80
2019-02-02T01:48:28.234Z,53.33
2019-02-02T01:50:56.044Z,52.23
2019-02-02T01:53:23.970Z,54.07
2019-02-02T01:55:51.824Z,55.60
2019-02-02T01:58:19.637Z,49.77
2019-02-02T02:00:47.465Z,52.37
2019-02-02T02:03:15.372Z,53.10
2019-02-02T02:05:43.317Z,52.50
2019-02-02T02:08:11.158Z,54.03
2019-02-02T02:10:39.032Z,56.43
2019-02-02T02:13:06.868Z,50.50
2019-02-02T02:15:34.760Z,47.73
2019-02-02T02:18:02.658Z,59.30
2019-02-02T02:20:30.525Z,59.03
2019-02-02T02:22:58.351Z,51.50
2019-02-02T02:25:26.473Z,56.37
2019-02-02T02:27:54.345Z,52.80
2019-02-02T02:30:22.590Z,60.13
2019-02-02T02:32:50.622Z,59.17
2019-02-02T02:35:18.571Z,61.97
2019-02-02T02:37:46.660Z,53.67
2019-02-02T02:40:15.680Z,64.03
2019-02-02T02:42:43.578Z,58.50
2019-02-02T02:45:11.493Z,55.17
2019-02-02T02:47:39.413Z,65.00
2019-02-02T02:50:08.426Z,51.50
2019-02-02T02:52:36.300Z,61.90
2019-02-02T02:55:04.548Z,55.27
2019-02-02T02:57:32.448Z,60.67
2019-02-02T03:00:00.413Z,63.70
2019-02-02T03:02:28.278Z,59.00
2019-02-02T03:04:57.734Z,54.27
2019-02-02T03:07:25.585Z,57.10
2019-02-02T03:09:53.502Z,58.90
2019-02-02T03:12:21.335Z,56.37
2019-02-02T03:14:49.130Z,60.43
2019-02-02T03:17:16.974Z,60.70
2019-02-02T03:19:44.881Z,57.63
2019-02-02T03:22:12.715Z,57.77
2019-02-02T03:24:40.653Z,57.70
2019-02-02T03:27:08.556Z,51.40
2019-02-02T03:29:36.470Z,57.17
2019-02-02T03:32:04.329Z,56.77
2019-02-02T03:34:32.180Z,55.97
2019-02-02T03:36:59.980Z,59.70
2019-02-02T03:39:28.025Z,58.83
2019-02-02T03:41:55.848Z,54.83
2019-02-02T03:44:23.686Z,52.90
2019-02-02T03:46:51.684Z,54.47
2019-02-02T03:49:19.504Z,56.37
2019-02-02T03:51:47.384Z,55.77
2019-02-02T03:54:16.630Z,53.20
2019-02-02T03:56:44.652Z,56.87
2019-02-02T03:59:12.560Z,56.60
2019-02-02T04:01:40.620Z,55.20
2019-02-02T04:04:08.486Z,55.40
2019-02-02T04:06:36.301Z,53.77
2019-02-02T04:09:06.274Z,55.00
2019-02-02T04:11:34.171Z,55.23
2019-02-02T04:14:02.076Z,53.97
2019-02-02T04:16:30.035Z,55.73
2019-02-02T04:18:57.971Z,57.07
2019-02-02T04:21:26.235Z,59.93
2019-02-02T04:23:54.110Z,58.27
2019-02-02T04:26:21.924Z,54.93
2019-02-02T04:28:50.048Z,65.27
2019-02-02T04:31:17.916Z,71.73
2019-02-02T04:33:45.797Z,62.30
2019-02-02T04:36:13.698Z,64.80
2019-02-02T04:38:41.592Z,64.63
2019-02-02T04:41:09.487Z,69.43
2019-02-02T04:43:37.470Z,72.93
2019-02-02T04:46:05.334Z,64.33
2019-02-02T04:48:33.271Z,66.93
2019-02-02T04:51:01.191Z,63.27
2019-02-02T04:53:29.058Z,62.17
2019-02-02T04:55:56.862Z,66.27
2019-02-02T04:58:24.904Z,66.83
2019-02-02T05:00:52.786Z,68.17
2019-02-02T05:03:20.973Z,63.10
2019-02-02T05:05:48.806Z,67.57
2019-02-02T05:08:16.667Z,63.23
2019-02-02T05:10:44.561Z,55.97
2019-02-02T05:13:12.399Z,64.13
2019-02-02T05:15:40.329Z,58.00
2019-02-02T05:18:08.135Z,64.97
2019-02-02T05:20:36.130Z,55.53
2019-02-02T05:23:03.998Z,58.57
2019-02-02T05:25:31.866Z,65.23
2019-02-02T05:27:59.754Z,58.90
2019-02-02T05:30:28.517Z,62.37
2019-02-02T05:32:56.521Z,59.30
2019-02-02T05:35:24.321Z,57.00
2019-02-02T05:37:52.195Z,56.53
2019-02-02T05:40:20.096Z,59.23
2019-02-02T05:42:47.928Z,50.57
2019-02-02T05:45:16.790Z,57.10
2019-02-02T05:47:44.682Z,50.50
2019-02-02T05:50:13.220Z,54.67
2019-02-02T05:52:41.211Z,46.80
2019-02-02T05:55:09.622Z,47.93
2019-02-02T05:57:37.540Z,52.67
2019-02-02T06:00:07.071Z,51.43
2019-02-02T06:02:34.974Z,47.90
2019-02-02T06:05:02.865Z,46.73
2019-02-02T06:07:33.792Z,54.73
2019-02-02T06:10:01.661Z,54.77
2019-02-02T06:12:30.807Z,43.20
2019-02-02T06:14:58.638Z,48.27
2019-02-02T06:17:26.441Z,46.73
2019-02-02T06:19:54.310Z,45.30
2019-02-02T06:22:22.377Z,45.20
2019-02-02T06:24:52.617Z,44.07
2019-02-02T06:27:19.820Z,45.80
2019-02-02T06:29:47.745Z,42.97
2019-02-02T06:32:17.896Z,43.27
2019-02-02T06:34:45.743Z,40.93
2019-02-02T06:37:13.645Z,44.43
2019-02-02T06:39:41.473Z,45.90
2019-02-02T06:42:09.413Z,43.73
2019-02-02T06:44:37.283Z,42.77
2019-02-02T06:47:05.095Z,44.20
2019-02-02T06:49:33.109Z,42.83
2019-02-02T06:52:01.010Z,41.27
2019-02-02T06:54:33.298Z,41.73
2019-02-02T06:56:58.395Z,40.93
2019-02-02T06:59:26.243Z,42.27
2019-02-02T07:01:54.225Z,41.60
2019-02-02T07:04:22.040Z,41.23
2019-02-02T07:06:49.922Z,41.43
2019-02-02T07:09:17.757Z,43.67
2019-02-02T07:11:45.637Z,43.97
2019-02-02T07:14:13.549Z,43.57
2019-02-02T07:16:41.348Z,42.70
2019-02-02T07:19:09.145Z,42.33
2019-02-02T07:21:36.938Z,39.37
2019-02-02T07:24:04.743Z,42.53
2019-02-02T07:26:35.515Z,42.93
2019-02-02T07:29:03.355Z,43.00
2019-02-02T07:31:31.191Z,44.07
2019-02-02T07:33:59.033Z,45.83
2019-02-02T07:36:26.822Z,42.30
2019-02-02T07:38:54.648Z,44.47
2019-02-02T07:41:22.584Z,43.53
2019-02-02T07:43:50.588Z,48.47
2019-02-02T07:46:18.463Z,45.97
2019-02-02T07:48:46.341Z,49.67
2019-02-02T07:51:14.320Z,55.50
2019-02-02T07:53:42.139Z,47.40
2019-02-02T07:56:10.039Z,46.30
2019-02-02T07:58:37.864Z,52.80
2019-02-02T08:01:05.660Z,43.27
2019-02-02T08:03:33.730Z,43.87
2019-02-02T08:06:01.599Z,53.03
2019-02-02T08:08:29.464Z,50.30
2019-02-02T08:10:57.493Z,44.13
2019-02-02T08:13:25.379Z,47.73
2019-02-02T08:15:53.246Z,51.57
2019-02-02T08:18:21.140Z,46.70
2019-02-02T08:20:48.927Z,49.10
2019-02-02T08:23:16.720Z,46.47
2019-02-02T08:25:44.576Z,44.10
2019-02-02T08:28:12.466Z,48.27
2019-02-02T08:30:51.574Z,46.30
2019-02-02T08:33:09.961Z,41.73
2019-02-02T08:35:37.976Z,50.37
2019-02-02T08:38:05.920Z,50.90
2019-02-02T08:40:33.806Z,47.37
2019-02-02T08:43:01.711Z,46.23
2019-02-02T08:45:29.516Z,46.17
2019-02-02T08:47:57.515Z,47.47
2019-02-02T08:50:26.799Z,45.57
2019-02-02T08:52:54.702Z,48.00
2019-02-02T08:55:22.666Z,46.23
2019-02-02T08:57:50.551Z,48.20
2019-02-02T09:00:19.000Z,45.60
2019-02-02T09:02:46.897Z,45.80
2019-02-02T09:05:15.556Z,48.43
2019-02-02T09:07:43.358Z,47.43
2019-02-02T09:10:12.708Z,47.23
2019-02-02T09:12:40.561Z,46.47
2019-02-02T09:15:09.100Z,47.77
2019-02-02T09:17:37.261Z,47.87
2019-02-02T09:20:06.798Z,51.30
2019-02-02T09:22:34.682Z,46.23
2019-02-02T09:25:03.171Z,49.40
2019-02-02T09:27:31.032Z,47.63
2019-02-02T09:29:58.827Z,47.13
2019-02-02T09:32:26.672Z,48.17
2019-02-02T09:34:54.888Z,46.23
2019-02-02T09:37:24.184Z,48.33
2019-02-02T09:39:52.604Z,43.33
2019-02-02T09:42:20.427Z,49.30
2019-02-02T09:44:48.294Z,52.30
2019-02-02T09:47:16.307Z,49.77
2019-02-02T09:49:44.217Z,47.30
2019-02-02T09:52:12.085Z,48.53
2019-02-02T09:54:40.024Z,47.67
2019-02-02T09:57:10.650Z,45.47
2019-02-02T09:59:38.567Z,46.93
2019-02-02T10:02:06.522Z,49.93
2019-02-02T10:04:34.364Z,44.60
2019-02-02T10:07:03.832Z,48.40
2019-02-02T10:09:33.115Z,42.93
2019-02-02T10:12:00.978Z,47.43
2019-02-02T10:14:28.864Z,46.90
2019-02-02T10:16:57.079Z,46.13
2019-02-02T10:19:28.133Z,47.03
2019-02-02T10:21:56.054Z,48.53
2019-02-02T10:24:24.019Z,43.97
2019-02-02T10:26:51.954Z,41.20
2019-02-02T10:29:19.830Z,46.60
2019-02-02T10:31:47.691Z,44.17
2019-02-02T10:34:15.729Z,45.47
2019-02-02T10:36:43.695Z,41.37
2019-02-02T10:39:11.629Z,42.83
2019-02-02T10:41:39.619Z,44.07
2019-02-02T10:44:07.627Z,43.27
2019-02-02T10:46:35.450Z,38.37
2019-02-02T10:49:03.314Z,36.80
2019-02-02T10:51:31.499Z,37.07
2019-02-02T10:53:59.350Z,40.30
2019-02-02T10:56:27.219Z,39.77
2019-02-02T10:58:55.104Z,37.43
2019-02-02T11:01:22.925Z,36.97
2019-02-02T11:03:50.888Z,37.70
2019-02-02T11:06:18.865Z,36.50
2019-02-02T11:08:46.801Z,39.07
2019-02-02T11:11:14.668Z,36.10
2019-02-02T11:13:42.651Z,40.00
2019-02-02T11:16:10.763Z,38.07
2019-02-02T11:18:38.618Z,37.83
2019-02-02T11:21:06.558Z,35.57
2019-02-02T11:23:34.597Z,38.20
2019-02-02T11:26:02.560Z,37.17
2019-02-02T11:28:30.440Z,34.50
2019-02-02T11:30:58.549Z,36.80
2019-02-02T11:33:26.382Z,33.30
2019-02-02T11:35:54.179Z,41.47
2019-02-02T11:38:22.447Z,37.53
2019-02-02T11:40:50.367Z,36.93
2019-02-02T11:43:18.243Z,33.27
2019-02-02T11:45:46.052Z,36.53
2019-02-02T11:48:15.107Z,37.03
2019-02-02T11:50:43.041Z,33.97
2019-02-02T11:53:10.907Z,32.17
2019-02-02T11:55:38.969Z,33.07
2019-02-02T11:58:06.779Z,33.77
2019-02-02T12:00:38.277Z,39.37
2019-02-02T12:03:06.111Z,32.03
2019-02-02T12:05:34.014Z,33.97
2019-02-02T12:08:01.800Z,35.57
2019-02-02T12:10:29.731Z,34.30
2019-02-02T12:12:57.559Z,32.20
2019-02-02T12:15:25.376Z,31.80
2019-02-02T12:17:53.205Z,31.27
2019-02-02T12:20:21.177Z,31.40
2019-02-02T12:22:49.012Z,28.93
2019-02-02T12:25:16.886Z,30.03
2019-02-02T12:27:44.744Z,30.67
2019-02-02T12:30:13.942Z,31.47
2019-02-02T12:32:41.738Z,23.93
2019-02-02T12:35:10.566Z,24.13
2019-02-02T12:37:38.427Z,22.03
2019-02-02T12:40:06.791Z,23.47
2019-02-02T12:42:34.893Z,25.60
2019-02-02T12:45:02.830Z,21.97
2019-02-02T12:47:30.676Z,22.03
2019-02-02T12:49:58.672Z,23.00
2019-02-02T12:52:26.509Z,22.40
2019-02-02T12:54:54.366Z,24.20
2019-02-02T12:57:22.298Z,24.77
2019-02-02T12:59:50.172Z,22.97
2019-02-02T13:02:18.072Z,23.27
2019-02-02T13:04:46.004Z,22.77
2019-02-02T13:07:14.337Z,18.20
2019-02-02T13:09:42.392Z,16.53
2019-02-02T13:12:10.332Z,16.40
2019-02-02T13:14:38.181Z,16.67
2019-02-02T13:17:06.196Z,13.27
2019-02-02T13:19:34.094Z,14.60
2019-02-02T13:22:01.969Z,18.07
2019-02-02T13:24:30.081Z,15.37
2019-02-02T13:26:58.032Z,15.63
2019-02-02T13:29:25.918Z,15.40
2019-02-02T13:31:53.780Z,15.97
2019-02-02T13:34:21.616Z,14.93
2019-02-02T13:36:49.391Z,15.73
2019-02-02T13:39:20.412Z,18.50
2019-02-02T13:41:48.406Z,17.93
2019-02-02T13:44:16.348Z,16.20
2019-02-02T13:46:44.295Z,15.90
2019-02-02T13:49:12.427Z,16.20
2019-02-02T13:51:40.254Z,16.50
2019-02-02T13:54:08.049Z,17.07
2019-02-02T13:56:35.866Z,16.70
2019-02-02T13:59:03.780Z,17.97
2019-02-02T14:01:41.807Z,14.30
2019-02-02T14:04:01.336Z,16.43
2019-02-02T14:06:29.131Z,15.17
2019-02-02T14:08:57.011Z,13.23
2019-02-02T14:11:24.850Z,14.97
2019-02-02T14:13:52.718Z,14.43
2019-02-02T14:16:20.596Z,13.10
2019-02-02T14:18:48.440Z,15.17
2019-02-02T14:21:16.273Z,15.50
2019-02-02T14:23:44.108Z,14.20
2019-02-02T14:26:12.111Z,14.50
2019-02-02T14:28:40.112Z,17.83
2019-02-02T14:31:08.132Z,17.30
2019-02-02T14:33:36.136Z,17.77
2019-02-02T14:36:04.157Z,13.97
2019-02-02T14:38:32.205Z,17.47
2019-02-02T14:41:00.053Z,17.23
2019-02-02T14:43:27.969Z,14.57
2019-02-02T14:45:56.002Z,15.97
2019-02-02T14:48:23.791Z,16.30
2019-02-02T14:50:51.690Z,18.77
2019-02-02T14:53:19.515Z,15.03
2019-02-02T14:55:47.354Z,17.70
2019-02-02T14:58:15.213Z,17.43
2019-02-02T15:00:43.072Z,16.90
2019-02-02T15:03:10.953Z,17.20
2019-02-02T15:05:42.999Z,17.67
2019-02-02T15:08:08.586Z,18.43
2019-02-02T15:10:36.688Z,20.40
2019-02-02T15:13:04.623Z,20.17
2019-02-02T15:15:32.495Z,21.03
2019-02-02T15:18:00.405Z,21.77
2019-02-02T15:20:29.519Z,20.03
2019-02-02T15:22:57.431Z,21.67
2019-02-02T15:25:25.396Z,20.57
2019-02-02T15:27:53.378Z,22.07
2019-02-02T15:30:21.951Z,22.97
2019-02-02T15:32:49.928Z,19.43
2019-02-02T15:35:17.867Z,19.03
2019-02-02T15:37:45.737Z,19.87
2019-02-02T15:40:14.357Z,19.33
2019-02-02T15:42:42.422Z,18.90
2019-02-02T15:45:11.426Z,18.90
2019-02-02T15:47:39.306Z,19.90
2019-02-02T15:50:08.175Z,18.47
2019-02-02T15:52:36.206Z,20.13
2019-02-02T15:55:05.728Z,20.07
2019-02-02T15:57:33.657Z,18.80
2019-02-02T16:00:01.600Z,18.77
2019-02-02T16:02:29.531Z,19.30
2019-02-02T16:04:57.448Z,14.80
2019-02-02T16:07:25.376Z,18.43
2019-02-02T16:09:53.242Z,15.23
2019-02-02T16:12:21.156Z,19.33
2019-02-02T16:14:49.201Z,17.77
2019-02-02T16:17:17.073Z,16.73
2019-02-02T16:19:44.985Z,15.43
2019-02-02T16:22:12.823Z,16.37
2019-02-02T16:24:40.802Z,15.23
2019-02-02T16:27:08.852Z,17.10
2019-02-02T16:29:36.947Z,18.37
2019-02-02T16:32:04.812Z,16.43
2019-02-02T16:34:32.705Z,17.83
2019-02-02T16:37:00.633Z,17.73
2019-02-02T16:39:28.582Z,21.67
2019-02-02T16:41:56.567Z,19.63
2019-02-02T16:44:24.490Z,20.70
2019-02-02T16:46:52.374Z,20.93
2019-02-02T16:49:20.216Z,19.57
2019-02-02T16:51:48.057Z,21.30
2019-02-02T16:54:16.191Z,20.73
2019-02-02T16:56:44.244Z,18.57
2019-02-02T16:59:12.358Z,24.60
2019-02-02T17:01:40.378Z,25.60
2019-02-02T17:04:15.358Z,23.07
2019-02-02T17:06:37.831Z,27.10
2019-02-02T17:09:07.199Z,27.87
2019-02-02T17:11:35.151Z,25.40
2019-02-02T17:14:03.026Z,28.00
2019-02-02T17:16:30.910Z,35.13
2019-02-02T17:18:58.777Z,25.17
2019-02-02T17:21:29.077Z,24.67
2019-02-02T17:23:56.375Z,27.83
2019-02-02T17:26:24.423Z,28.30
2019-02-02T17:28:52.252Z,24.70
2019-02-02T17:31:20.053Z,27.23
2019-02-02T17:33:47.905Z,30.43
2019-02-02T17:36:17.463Z,28.80
2019-02-02T17:38:45.309Z,27.93
2019-02-02T17:41:13.217Z,28.83
2019-02-02T17:43:41.104Z,29.73
2019-02-02T17:46:09.070Z,29.90
2019-02-02T17:48:37.459Z,28.93
2019-02-02T17:51:05.315Z,31.87
2019-02-02T17:53:33.204Z,30.90
2019-02-02T17:56:01.208Z,32.13
2019-02-02T17:58:39.382Z,29.57
2019-02-02T18:01:00.287Z,26.50
2019-02-02T18:03:28.188Z,29.27
2019-02-02T18:05:56.088Z,30.47
2019-02-02T18:08:23.935Z,28.83
2019-02-02T18:10:51.835Z,28.27
2019-02-02T18:13:19.692Z,30.70
2019-02-02T18:15:47.556Z,26.43
2019-02-02T18:18:15.796Z,28.60
2019-02-02T18:20:43.839Z,21.70
2019-02-02T18:23:11.639Z,20.77
2019-02-02T18:25:39.541Z,22.67
2019-02-02T18:28:07.634Z,16.10
2019-02-02T18:30:35.538Z,19.27
2019-02-02T18:33:03.379Z,17.37
2019-02-02T18:35:31.200Z,16.33
2019-02-02T18:37:59.092Z,15.87
2019-02-02T18:40:26.955Z,15.63
2019-02-02T18:42:54.797Z,14.90
2019-02-02T18:45:23.442Z,15.17
2019-02-02T18:47:51.295Z,13.97
2019-02-02T18:50:19.209Z,13.80
2019-02-02T18:52:47.304Z,17.57
2019-02-02T18:55:16.639Z,18.43
2019-02-02T18:57:44.628Z,16.03
2019-02-02T19:00:14.177Z,15.33
2019-02-02T19:02:42.074Z,18.73
2019-02-02T19:05:10.911Z,13.37
2019-02-02T19:07:38.781Z,17.00
2019-02-02T19:10:08.259Z,17.73
2019-02-02T19:12:36.124Z,19.30
2019-02-02T19:15:04.294Z,20.40
2019-02-02T19:17:32.504Z,19.73
2019-02-02T19:20:00.399Z,18.83
2019-02-02T19:22:28.220Z,22.43
2019-02-02T19:24:56.074Z,22.67
2019-02-02T19:27:23.919Z,23.37
2019-02-02T19:29:51.809Z,22.67
2019-02-02T19:32:19.659Z,20.87
2019-02-02T19:34:47.483Z,24.07
2019-02-02T19:37:15.427Z,25.73
2019-02-02T19:39:45.284Z,24.40
2019-02-02T19:42:13.130Z,24.50
2019-02-02T19:44:41.118Z,23.37
2019-02-02T19:47:15.795Z,22.70
2019-02-02T19:49:38.666Z,22.47
2019-02-02T19:52:06.647Z,24.83
2019-02-02T19:54:34.463Z,22.00
2019-02-02T19:57:02.452Z,21.23
2019-02-02T19:59:30.512Z,21.10
2019-02-02T20:01:58.391Z,24.60
2019-02-02T20:04:26.333Z,28.93
2019-02-02T20:06:54.180Z,24.47
2019-02-02T20:09:22.140Z,20.90
2019-02-02T20:11:50.051Z,22.50
2019-02-02T20:14:17.867Z,22.77
2019-02-02T20:16:45.690Z,22.33
2019-02-02T20:19:13.604Z,22.47
2019-02-02T20:21:44.460Z,25.73
2019-02-02T20:24:11.056Z,21.93
2019-02-02T20:26:38.925Z,21.60
2019-02-02T20:29:06.774Z,21.57
2019-02-02T20:31:35.008Z,21.03
2019-02-02T20:34:02.871Z,24.87
2019-02-02T20:36:30.822Z,24.20
2019-02-02T20:38:58.731Z,21.83
2019-02-02T20:41:28.252Z,24.07
2019-02-02T20:43:56.090Z,23.50
2019-02-02T20:46:23.909Z,24.23
2019-02-02T20:48:51.786Z,27.67
2019-02-02T20:51:19.740Z,29.90
2019-02-02T20:53:47.858Z,32.80
2019-02-02T20:56:15.840Z,33.20
2019-02-02T20:58:43.730Z,33.83
2019-02-02T21:01:11.668Z,31.70
2019-02-02T21:03:39.618Z,30.80
2019-02-02T21:06:07.636Z,36.40
2019-02-02T21:08:36.012Z,35.63
2019-02-02T21:11:04.054Z,39.57
2019-02-02T21:13:31.943Z,42.23
2019-02-02T21:15:59.953Z,40.70
2019-02-02T21:18:27.945Z,41.77
2019-02-02T21:20:55.892Z,42.73
2019-02-02T21:23:23.704Z,39.80
2019-02-02T21:25:51.622Z,41.40
2019-02-02T21:28:19.422Z,43.70
2019-02-02T21:30:47.512Z,42.23
2019-02-02T21:33:15.555Z,43.47
2019-02-02T21:35:43.536Z,41.83
2019-02-02T21:38:11.435Z,42.23
2019-02-02T21:40:39.340Z,39.10
2019-02-02T21:43:09.243Z,43.33
2019-02-02T21:45:37.445Z,38.27
2019-02-02T21:48:05.706Z,43.50
2019-02-02T21:50:33.578Z,40.33
2019-02-02T21:53:02.128Z,45.67
2019-02-02T21:55:30.117Z,46.47
2019-02-02T21:57:58.085Z,48.47
2019-02-02T22:00:30.528Z,43.03
2019-02-02T22:02:58.538Z,45.23
2019-02-02T22:05:26.484Z,44.03
2019-02-02T22:07:54.607Z,48.67
2019-02-02T22:10:22.710Z,48.47
2019-02-02T22:12:52.862Z,46.27
2019-02-02T22:15:21.269Z,46.43
2019-02-02T22:17:49.345Z,45.87
2019-02-02T22:20:17.352Z,52.30
2019-02-02T22:22:45.328Z,50.07
2019-02-02T22:25:17.285Z,51.50
2019-02-02T22:27:45.572Z,48.67
2019-02-02T22:30:20.626Z,47.23
2019-02-02T22:32:48.664Z,48.20
2019-02-02T22:35:16.626Z,48.87
2019-02-02T22:37:44.584Z,50.83
2019-02-02T22:40:13.614Z,44.57
2019-02-02T22:42:41.754Z,48.60
2019-02-02T22:45:11.625Z,50.80
2019-02-02T22:47:39.679Z,45.60
2019-02-02T22:50:07.690Z,41.63
2019-02-02T22:52:35.795Z,40.40
2019-02-02T22:55:04.187Z,38.37
2019-02-02T22:57:32.176Z,37.73
2019-02-02T23:00:00.089Z,36.93
2019-02-02T23:02:28.407Z,36.20
2019-02-02T23:05:15.674Z,32.57
2019-02-02T23:08:01.682Z,31.23
2019-02-02T23:10:47.556Z,28.03
2019-02-02T23:13:40.593Z,27.83
2019-02-02T23:16:30.436Z,26.50
2019-02-02T23:18:59.062Z,30.53
2019-02-02T23:21:27.414Z,25.50
2019-02-02T23:23:55.263Z,26.00
2019-02-02T23:26:23.235Z,27.73
2019-02-02T23:28:51.157Z,28.27
2019-02-02T23:31:19.040Z,26.87
2019-02-02T23:33:47.569Z,24.73
2019-02-02T23:36:15.684Z,26.47
2019-02-02T23:38:43.631Z,27.63
2019-02-02T23:41:11.565Z,32.10
2019-02-02T23:43:39.408Z,27.93
2019-02-02T23:46:08.972Z,27.00
2019-02-02T23:48:36.882Z,24.83
2019-02-02T23:51:04.799Z,24.80
2019-02-02T23:53:32.645Z,28.07
2019-02-02T23:56:00.510Z,29.27
2019-02-02T23:58:28.418Z,28.53
